sensor_id;sensor_type;location;lat;lon;timestamp;pressure;altitude;pressure_sealevel;temperature;humidity
73624;BME280;61921;53.226;-1.296;2023-05-29T00:01:27;101753.71;;;10.01;84.18
73624;BME280;61921;53.226;-1.296;2023-05-29T00:03:52;101756.31;;;9.98;84.25
73624;BME280;61921;53.226;-1.296;2023-05-29T00:06:19;101763.19;;;9.55;87.17
73624;BME280;61921;53.226;-1.296;2023-05-29T00:08:43;101760.35;;;9.53;87.45
73624;BME280;61921;53.226;-1.296;2023-05-29T00:11:09;101757.10;;;9.57;87.70
73624;BME280;61921;53.226;-1.296;2023-05-29T00:13:34;101754.84;;;9.61;88.14
73624;BME280;61921;53.226;-1.296;2023-05-29T00:15:59;101754.76;;;9.67;88.08
73624;BME280;61921;53.226;-1.296;2023-05-29T00:18:25;101751.58;;;9.53;87.85
73624;BME280;61921;53.226;-1.296;2023-05-29T00:20:50;101751.07;;;9.57;88.02
73624;BME280;61921;53.226;-1.296;2023-05-29T00:23:16;101753.96;;;9.61;87.76
73624;BME280;61921;53.226;-1.296;2023-05-29T00:25:41;101750.24;;;9.72;87.13
73624;BME280;61921;53.226;-1.296;2023-05-29T00:28:07;101753.74;;;9.62;88.22
73624;BME280;61921;53.226;-1.296;2023-05-29T00:30:32;101761.77;;;9.55;87.62
73624;BME280;61921;53.226;-1.296;2023-05-29T00:32:58;101764.24;;;9.55;88.06
73624;BME280;61921;53.226;-1.296;2023-05-29T00:35:22;101764.01;;;9.40;88.41
73624;BME280;61921;53.226;-1.296;2023-05-29T00:37:48;101764.11;;;9.60;87.55
73624;BME280;61921;53.226;-1.296;2023-05-29T00:40:14;101765.09;;;9.47;88.30
73624;BME280;61921;53.226;-1.296;2023-05-29T00:42:39;101760.55;;;9.59;88.40
73624;BME280;61921;53.226;-1.296;2023-05-29T00:45:06;101762.40;;;9.63;87.84
73624;BME280;61921;53.226;-1.296;2023-05-29T00:47:30;101759.49;;;9.63;87.65
73624;BME280;61921;53.226;-1.296;2023-05-29T00:49:56;101758.55;;;9.51;88.08
73624;BME280;61921;53.226;-1.296;2023-05-29T00:52:20;101756.02;;;9.78;87.14
73624;BME280;61921;53.226;-1.296;2023-05-29T00:54:46;101752.47;;;9.75;86.78
73624;BME280;61921;53.226;-1.296;2023-05-29T00:57:13;101757.00;;;9.68;87.08
73624;BME280;61921;53.226;-1.296;2023-05-29T00:59:37;101753.59;;;9.71;87.01
73624;BME280;61921;53.226;-1.296;2023-05-29T01:02:03;101750.75;;;9.68;86.63
73624;BME280;61921;53.226;-1.296;2023-05-29T01:04:28;101755.21;;;9.49;86.80
73624;BME280;61921;53.226;-1.296;2023-05-29T01:06:53;101755.78;;;9.44;86.94
73624;BME280;61921;53.226;-1.296;2023-05-29T01:09:19;101759.92;;;9.51;85.95
73624;BME280;61921;53.226;-1.296;2023-05-29T01:11:51;101761.42;;;9.46;85.55
73624;BME280;61921;53.226;-1.296;2023-05-29T01:14:17;101764.19;;;9.13;86.76
73624;BME280;61921;53.226;-1.296;2023-05-29T01:16:40;101766.28;;;9.09;86.80
73624;BME280;61921;53.226;-1.296;2023-05-29T01:19:10;101768.07;;;9.20;86.44
73624;BME280;61921;53.226;-1.296;2023-05-29T01:21:45;101770.52;;;8.95;87.59
73624;BME280;61921;53.226;-1.296;2023-05-29T01:24:02;101774.34;;;9.06;87.68
73624;BME280;61921;53.226;-1.296;2023-05-29T01:28:48;101778.44;;;9.12;86.18
73624;BME280;61921;53.226;-1.296;2023-05-29T01:31:09;101776.66;;;8.92;87.19
73624;BME280;61921;53.226;-1.296;2023-05-29T01:33:34;101777.87;;;8.83;87.85
73624;BME280;61921;53.226;-1.296;2023-05-29T01:35:59;101781.58;;;8.93;87.69
73624;BME280;61921;53.226;-1.296;2023-05-29T01:38:25;101777.25;;;8.98;87.51
73624;BME280;61921;53.226;-1.296;2023-05-29T01:40:50;101773.76;;;8.78;87.78
73624;BME280;61921;53.226;-1.296;2023-05-29T01:43:15;101778.03;;;8.75;87.77
73624;BME280;61921;53.226;-1.296;2023-05-29T01:45:41;101777.97;;;8.52;88.74
73624;BME280;61921;53.226;-1.296;2023-05-29T01:48:07;101774.19;;;8.88;87.66
73624;BME280;61921;53.226;-1.296;2023-05-29T01:50:32;101775.88;;;8.99;86.58
73624;BME280;61921;53.226;-1.296;2023-05-29T01:52:58;101778.23;;;9.02;85.28
73624;BME280;61921;53.226;-1.296;2023-05-29T01:55:23;101774.73;;;9.01;84.71
73624;BME280;61921;53.226;-1.296;2023-05-29T01:57:49;101775.87;;;9.05;84.07
73624;BME280;61921;53.226;-1.296;2023-05-29T02:00:17;101772.71;;;8.96;84.33
73624;BME280;61921;53.226;-1.296;2023-05-29T02:02:40;101773.64;;;8.94;84.20
73624;BME280;61921;53.226;-1.296;2023-05-29T02:05:08;101773.15;;;8.89;84.05
73624;BME280;61921;53.226;-1.296;2023-05-29T02:07:30;101773.97;;;8.90;83.97
73624;BME280;61921;53.226;-1.296;2023-05-29T02:09:56;101772.50;;;8.89;83.85
73624;BME280;61921;53.226;-1.296;2023-05-29T02:12:21;101770.91;;;8.78;84.81
73624;BME280;61921;53.226;-1.296;2023-05-29T02:14:46;101771.19;;;8.76;84.65
73624;BME280;61921;53.226;-1.296;2023-05-29T02:17:12;101772.99;;;8.85;83.77
73624;BME280;61921;53.226;-1.296;2023-05-29T02:19:37;101771.74;;;8.77;84.64
73624;BME280;61921;53.226;-1.296;2023-05-29T02:22:03;101768.67;;;8.72;84.90
73624;BME280;61921;53.226;-1.296;2023-05-29T02:24:28;101768.45;;;8.70;84.75
73624;BME280;61921;53.226;-1.296;2023-05-29T02:26:53;101761.83;;;8.68;85.10
73624;BME280;61921;53.226;-1.296;2023-05-29T02:29:19;101762.05;;;8.71;83.90
73624;BME280;61921;53.226;-1.296;2023-05-29T02:31:44;101765.04;;;8.37;86.12
73624;BME280;61921;53.226;-1.296;2023-05-29T02:34:10;101767.19;;;8.52;85.33
73624;BME280;61921;53.226;-1.296;2023-05-29T02:36:35;101768.29;;;8.64;84.57
73624;BME280;61921;53.226;-1.296;2023-05-29T02:39:01;101772.67;;;8.75;83.83
73624;BME280;61921;53.226;-1.296;2023-05-29T02:41:26;101775.30;;;8.74;83.83
73624;BME280;61921;53.226;-1.296;2023-05-29T02:43:52;101776.72;;;8.62;84.42
73624;BME280;61921;53.226;-1.296;2023-05-29T02:46:18;101774.20;;;8.55;84.71
73624;BME280;61921;53.226;-1.296;2023-05-29T02:48:43;101770.58;;;8.52;84.79
73624;BME280;61921;53.226;-1.296;2023-05-29T02:51:09;101773.48;;;8.52;84.96
73624;BME280;61921;53.226;-1.296;2023-05-29T02:53:34;101773.74;;;8.39;85.46
73624;BME280;61921;53.226;-1.296;2023-05-29T02:55:59;101771.45;;;8.46;84.54
73624;BME280;61921;53.226;-1.296;2023-05-29T02:58:25;101772.28;;;8.13;86.38
73624;BME280;61921;53.226;-1.296;2023-05-29T03:00:51;101770.68;;;8.42;85.77
73624;BME280;61921;53.226;-1.296;2023-05-29T03:03:16;101773.44;;;8.20;88.51
73624;BME280;61921;53.226;-1.296;2023-05-29T03:05:41;101774.89;;;8.39;89.25
73624;BME280;61921;53.226;-1.296;2023-05-29T03:08:07;101775.07;;;8.59;88.24
73624;BME280;61921;53.226;-1.296;2023-05-29T03:10:33;101770.26;;;8.72;86.70
73624;BME280;61921;53.226;-1.296;2023-05-29T03:12:58;101771.79;;;8.77;85.08
73624;BME280;61921;53.226;-1.296;2023-05-29T03:15:24;101771.63;;;8.73;83.87
73624;BME280;61921;53.226;-1.296;2023-05-29T03:17:49;101768.89;;;8.78;83.18
73624;BME280;61921;53.226;-1.296;2023-05-29T03:20:15;101768.29;;;8.69;83.03
73624;BME280;61921;53.226;-1.296;2023-05-29T03:22:40;101763.36;;;8.68;82.83
73624;BME280;61921;53.226;-1.296;2023-05-29T03:25:06;101768.78;;;8.62;82.80
73624;BME280;61921;53.226;-1.296;2023-05-29T03:27:31;101768.40;;;8.62;82.84
73624;BME280;61921;53.226;-1.296;2023-05-29T03:29:57;101768.07;;;8.57;82.63
73624;BME280;61921;53.226;-1.296;2023-05-29T03:32:22;101772.99;;;8.47;82.54
73624;BME280;61921;53.226;-1.296;2023-05-29T03:34:48;101770.94;;;8.28;83.41
73624;BME280;61921;53.226;-1.296;2023-05-29T03:37:13;101771.69;;;8.20;83.68
73624;BME280;61921;53.226;-1.296;2023-05-29T03:39:38;101766.38;;;8.21;83.50
73624;BME280;61921;53.226;-1.296;2023-05-29T03:42:04;101775.40;;;8.17;83.37
73624;BME280;61921;53.226;-1.296;2023-05-29T03:44:30;101780.80;;;8.08;83.77
73624;BME280;61921;53.226;-1.296;2023-05-29T03:46:55;101780.72;;;7.69;86.41
73624;BME280;61921;53.226;-1.296;2023-05-29T03:49:20;101779.38;;;7.76;86.59
73624;BME280;61921;53.226;-1.296;2023-05-29T03:51:45;101780.12;;;7.70;87.56
73624;BME280;61921;53.226;-1.296;2023-05-29T03:54:11;101778.54;;;7.58;88.12
73624;BME280;61921;53.226;-1.296;2023-05-29T03:56:36;101776.71;;;7.65;87.35
73624;BME280;61921;53.226;-1.296;2023-05-29T03:59:02;101780.20;;;7.64;86.99
73624;BME280;61921;53.226;-1.296;2023-05-29T04:01:27;101780.03;;;7.51;87.84
73624;BME280;61921;53.226;-1.296;2023-05-29T04:03:53;101780.09;;;7.40;87.60
73624;BME280;61921;53.226;-1.296;2023-05-29T04:06:18;101781.71;;;7.58;87.30
73624;BME280;61921;53.226;-1.296;2023-05-29T04:08:44;101782.64;;;7.38;87.65
73624;BME280;61921;53.226;-1.296;2023-05-29T04:11:09;101783.90;;;7.38;87.78
73624;BME280;61921;53.226;-1.296;2023-05-29T04:13:35;101784.29;;;7.21;89.04
73624;BME280;61921;53.226;-1.296;2023-05-29T04:16:00;101786.44;;;7.16;89.39
73624;BME280;61921;53.226;-1.296;2023-05-29T04:18:26;101788.54;;;6.88;90.82
73624;BME280;61921;53.226;-1.296;2023-05-29T04:20:51;101792.36;;;6.95;94.33
73624;BME280;61921;53.226;-1.296;2023-05-29T04:23:17;101794.02;;;7.22;94.54
73624;BME280;61921;53.226;-1.296;2023-05-29T04:25:42;101795.87;;;7.49;93.10
73624;BME280;61921;53.226;-1.296;2023-05-29T04:28:08;101800.76;;;7.66;92.32
73624;BME280;61921;53.226;-1.296;2023-05-29T04:30:33;101803.76;;;7.75;90.64
73624;BME280;61921;53.226;-1.296;2023-05-29T04:32:59;101803.94;;;7.67;89.64
73624;BME280;61921;53.226;-1.296;2023-05-29T04:35:25;101802.16;;;7.72;89.19
73624;BME280;61921;53.226;-1.296;2023-05-29T04:37:50;101803.39;;;7.55;90.10
73624;BME280;61921;53.226;-1.296;2023-05-29T04:40:16;101804.07;;;7.59;91.74
73624;BME280;61921;53.226;-1.296;2023-05-29T04:42:42;101805.25;;;7.67;90.91
73624;BME280;61921;53.226;-1.296;2023-05-29T04:45:07;101804.34;;;7.98;89.71
73624;BME280;61921;53.226;-1.296;2023-05-29T04:47:32;101803.65;;;7.90;89.39
73624;BME280;61921;53.226;-1.296;2023-05-29T04:49:59;101807.20;;;8.02;88.55
73624;BME280;61921;53.226;-1.296;2023-05-29T04:52:23;101810.04;;;8.21;87.37
73624;BME280;61921;53.226;-1.296;2023-05-29T04:54:49;101814.29;;;8.35;86.35
73624;BME280;61921;53.226;-1.296;2023-05-29T04:57:14;101818.72;;;8.37;85.92
73624;BME280;61921;53.226;-1.296;2023-05-29T04:59:39;101820.44;;;8.22;87.22
73624;BME280;61921;53.226;-1.296;2023-05-29T05:02:05;101822.61;;;8.37;86.42
73624;BME280;61921;53.226;-1.296;2023-05-29T05:04:31;101825.40;;;8.35;86.06
73624;BME280;61921;53.226;-1.296;2023-05-29T05:06:56;101825.16;;;8.52;85.33
73624;BME280;61921;53.226;-1.296;2023-05-29T05:09:22;101824.07;;;8.63;85.27
73624;BME280;61921;53.226;-1.296;2023-05-29T05:11:47;101825.03;;;8.44;85.47
73624;BME280;61921;53.226;-1.296;2023-05-29T05:14:13;101826.65;;;7.96;89.30
73624;BME280;61921;53.226;-1.296;2023-05-29T05:16:38;101824.40;;;8.11;90.46
73624;BME280;61921;53.226;-1.296;2023-05-29T05:19:06;101826.02;;;8.03;91.80
73624;BME280;61921;53.226;-1.296;2023-05-29T05:21:29;101829.24;;;8.02;92.39
73624;BME280;61921;53.226;-1.296;2023-05-29T05:23:55;101826.05;;;7.84;93.97
73624;BME280;61921;53.226;-1.296;2023-05-29T05:26:20;101824.02;;;7.71;95.17
73624;BME280;61921;53.226;-1.296;2023-05-29T05:28:47;101823.89;;;7.67;96.09
73624;BME280;61921;53.226;-1.296;2023-05-29T05:31:11;101820.40;;;7.92;96.11
73624;BME280;61921;53.226;-1.296;2023-05-29T05:33:36;101819.06;;;8.00;95.98
73624;BME280;61921;53.226;-1.296;2023-05-29T05:36:02;101819.66;;;8.15;95.97
73624;BME280;61921;53.226;-1.296;2023-05-29T05:38:27;101821.13;;;8.35;95.82
73624;BME280;61921;53.226;-1.296;2023-05-29T05:40:52;101820.85;;;8.34;96.08
73624;BME280;61921;53.226;-1.296;2023-05-29T05:43:17;101820.92;;;8.40;95.99
73624;BME280;61921;53.226;-1.296;2023-05-29T05:45:43;101824.88;;;8.52;96.35
73624;BME280;61921;53.226;-1.296;2023-05-29T05:48:09;101827.80;;;8.67;96.05
73624;BME280;61921;53.226;-1.296;2023-05-29T05:50:34;101829.51;;;8.81;95.11
73624;BME280;61921;53.226;-1.296;2023-05-29T05:53:00;101825.46;;;8.97;94.44
73624;BME280;61921;53.226;-1.296;2023-05-29T05:55:25;101826.55;;;9.03;94.29
73624;BME280;61921;53.226;-1.296;2023-05-29T05:57:51;101825.93;;;9.23;93.67
73624;BME280;61921;53.226;-1.296;2023-05-29T06:00:17;101824.24;;;9.45;92.87
73624;BME280;61921;53.226;-1.296;2023-05-29T06:02:41;101824.61;;;9.52;92.44
73624;BME280;61921;53.226;-1.296;2023-05-29T06:05:07;101826.72;;;9.63;91.90
73624;BME280;61921;53.226;-1.296;2023-05-29T06:07:32;101827.66;;;9.62;91.62
73624;BME280;61921;53.226;-1.296;2023-05-29T06:09:58;101830.99;;;9.66;92.44
73624;BME280;61921;53.226;-1.296;2023-05-29T06:12:23;101834.02;;;9.80;91.64
73624;BME280;61921;53.226;-1.296;2023-05-29T06:14:49;101833.40;;;9.82;91.84
73624;BME280;61921;53.226;-1.296;2023-05-29T06:17:14;101833.84;;;9.96;90.96
73624;BME280;61921;53.226;-1.296;2023-05-29T06:19:39;101832.33;;;10.04;90.98
73624;BME280;61921;53.226;-1.296;2023-05-29T06:22:06;101833.58;;;10.17;88.86
73624;BME280;61921;53.226;-1.296;2023-05-29T06:24:30;101836.81;;;10.39;87.86
73624;BME280;61921;53.226;-1.296;2023-05-29T06:26:56;101832.79;;;10.58;86.20
73624;BME280;61921;53.226;-1.296;2023-05-29T06:29:21;101833.83;;;10.81;84.88
73624;BME280;61921;53.226;-1.296;2023-05-29T06:31:47;101836.20;;;10.87;83.58
73624;BME280;61921;53.226;-1.296;2023-05-29T06:34:12;101839.95;;;10.93;81.60
73624;BME280;61921;53.226;-1.296;2023-05-29T06:36:38;101840.61;;;11.17;82.41
73624;BME280;61921;53.226;-1.296;2023-05-29T06:39:03;101846.65;;;10.99;80.02
73624;BME280;61921;53.226;-1.296;2023-05-29T06:41:29;101852.18;;;11.16;79.83
73624;BME280;61921;53.226;-1.296;2023-05-29T06:43:54;101858.31;;;11.36;79.59
73624;BME280;61921;53.226;-1.296;2023-05-29T06:46:19;101859.99;;;11.50;78.37
73624;BME280;61921;53.226;-1.296;2023-05-29T06:48:45;101859.57;;;11.59;77.80
73624;BME280;61921;53.226;-1.296;2023-05-29T06:51:10;101868.79;;;11.71;77.08
73624;BME280;61921;53.226;-1.296;2023-05-29T06:53:36;101865.78;;;11.48;76.29
73624;BME280;61921;53.226;-1.296;2023-05-29T06:56:01;101867.65;;;11.65;77.21
73624;BME280;61921;53.226;-1.296;2023-05-29T06:58:27;101867.83;;;11.83;75.92
73624;BME280;61921;53.226;-1.296;2023-05-29T07:00:52;101870.60;;;11.76;75.08
73624;BME280;61921;53.226;-1.296;2023-05-29T07:03:18;101874.64;;;12.12;73.53
73624;BME280;61921;53.226;-1.296;2023-05-29T07:05:43;101873.41;;;12.05;73.85
73624;BME280;61921;53.226;-1.296;2023-05-29T07:08:08;101875.22;;;12.10;73.69
73624;BME280;61921;53.226;-1.296;2023-05-29T07:10:33;101871.37;;;12.35;73.39
73624;BME280;61921;53.226;-1.296;2023-05-29T07:12:58;101869.91;;;12.45;71.50
73624;BME280;61921;53.226;-1.296;2023-05-29T07:15:24;101870.52;;;13.26;70.67
73624;BME280;61921;53.226;-1.296;2023-05-29T07:17:49;101867.99;;;13.47;68.60
73624;BME280;61921;53.226;-1.296;2023-05-29T07:20:14;101873.27;;;13.98;66.47
73624;BME280;61921;53.226;-1.296;2023-05-29T07:22:40;101870.11;;;14.79;64.52
73624;BME280;61921;53.226;-1.296;2023-05-29T07:25:06;101868.01;;;13.98;65.91
73624;BME280;61921;53.226;-1.296;2023-05-29T07:27:30;101867.25;;;14.16;64.49
73624;BME280;61921;53.226;-1.296;2023-05-29T07:29:56;101868.92;;;14.51;63.96
73624;BME280;61921;53.226;-1.296;2023-05-29T07:32:21;101877.33;;;13.88;64.52
73624;BME280;61921;53.226;-1.296;2023-05-29T07:34:46;101875.10;;;13.94;63.99
73624;BME280;61921;53.226;-1.296;2023-05-29T07:37:12;101873.66;;;14.14;63.22
73624;BME280;61921;53.226;-1.296;2023-05-29T07:39:38;101874.09;;;14.33;62.62
73624;BME280;61921;53.226;-1.296;2023-05-29T07:42:03;101873.76;;;14.06;64.26
73624;BME280;61921;53.226;-1.296;2023-05-29T07:44:28;101873.25;;;14.09;64.25
73624;BME280;61921;53.226;-1.296;2023-05-29T07:46:53;101876.08;;;13.78;65.18
73624;BME280;61921;53.226;-1.296;2023-05-29T07:49:19;101869.46;;;14.16;65.21
73624;BME280;61921;53.226;-1.296;2023-05-29T07:51:44;101879.75;;;14.26;62.34
73624;BME280;61921;53.226;-1.296;2023-05-29T07:54:09;101889.37;;;13.53;62.52
73624;BME280;61921;53.226;-1.296;2023-05-29T07:56:35;101888.00;;;13.98;62.06
73624;BME280;61921;53.226;-1.296;2023-05-29T07:59:00;101893.65;;;13.77;62.66
73624;BME280;61921;53.226;-1.296;2023-05-29T08:01:25;101888.79;;;13.39;63.76
73624;BME280;61921;53.226;-1.296;2023-05-29T08:03:50;101895.82;;;13.14;63.87
73624;BME280;61921;53.226;-1.296;2023-05-29T08:06:16;101895.54;;;12.97;65.35
73624;BME280;61921;53.226;-1.296;2023-05-29T08:08:41;101902.67;;;12.70;65.20
73624;BME280;61921;53.226;-1.296;2023-05-29T08:11:07;101902.88;;;12.78;65.95
73624;BME280;61921;53.226;-1.296;2023-05-29T08:13:32;101907.47;;;12.99;65.09
73624;BME280;61921;53.226;-1.296;2023-05-29T08:15:57;101911.24;;;13.25;64.36
73624;BME280;61921;53.226;-1.296;2023-05-29T08:18:25;101913.42;;;13.40;64.49
73624;BME280;61921;53.226;-1.296;2023-05-29T08:20:48;101918.81;;;12.97;65.34
73624;BME280;61921;53.226;-1.296;2023-05-29T08:23:13;101917.39;;;13.07;66.55
73624;BME280;61921;53.226;-1.296;2023-05-29T08:25:39;101922.20;;;13.03;66.45
73624;BME280;61921;53.226;-1.296;2023-05-29T08:28:04;101924.35;;;13.13;66.79
73624;BME280;61921;53.226;-1.296;2023-05-29T08:30:30;101928.82;;;13.06;65.85
73624;BME280;61921;53.226;-1.296;2023-05-29T08:32:55;101924.08;;;13.43;66.80
73624;BME280;61921;53.226;-1.296;2023-05-29T08:35:20;101927.36;;;13.48;66.85
73624;BME280;61921;53.226;-1.296;2023-05-29T08:37:46;101929.08;;;13.76;66.23
73624;BME280;61921;53.226;-1.296;2023-05-29T08:40:11;101927.23;;;13.92;65.81
73624;BME280;61921;53.226;-1.296;2023-05-29T08:42:40;101923.41;;;13.50;67.20
73624;BME280;61921;53.226;-1.296;2023-05-29T08:45:03;101923.85;;;13.50;68.17
73624;BME280;61921;53.226;-1.296;2023-05-29T08:47:27;101923.67;;;13.76;67.57
73624;BME280;61921;53.226;-1.296;2023-05-29T08:49:53;101923.13;;;14.44;65.61
73624;BME280;61921;53.226;-1.296;2023-05-29T08:52:20;101925.79;;;14.11;66.12
73624;BME280;61921;53.226;-1.296;2023-05-29T08:54:44;101918.36;;;14.42;63.92
73624;BME280;61921;53.226;-1.296;2023-05-29T08:57:09;101921.94;;;14.56;64.06
73624;BME280;61921;53.226;-1.296;2023-05-29T08:59:35;101922.40;;;14.45;63.69
73624;BME280;61921;53.226;-1.296;2023-05-29T09:01:59;101928.72;;;14.22;63.65
73624;BME280;61921;53.226;-1.296;2023-05-29T09:04:24;101924.59;;;13.73;63.62
73624;BME280;61921;53.226;-1.296;2023-05-29T09:06:50;101932.82;;;14.19;64.44
73624;BME280;61921;53.226;-1.296;2023-05-29T09:09:15;101931.55;;;13.99;62.99
73624;BME280;61921;53.226;-1.296;2023-05-29T09:11:40;101931.04;;;14.44;62.53
73624;BME280;61921;53.226;-1.296;2023-05-29T09:14:07;101929.26;;;14.57;61.07
73624;BME280;61921;53.226;-1.296;2023-05-29T09:16:31;101934.74;;;14.52;60.87
73624;BME280;61921;53.226;-1.296;2023-05-29T09:19:06;101934.19;;;14.62;59.03
73624;BME280;61921;53.226;-1.296;2023-05-29T09:21:26;101935.08;;;14.41;59.56
73624;BME280;61921;53.226;-1.296;2023-05-29T09:23:51;101941.78;;;14.54;59.41
73624;BME280;61921;53.226;-1.296;2023-05-29T09:26:14;101935.94;;;14.55;59.50
73624;BME280;61921;53.226;-1.296;2023-05-29T09:28:38;101933.87;;;15.00;58.68
73624;BME280;61921;53.226;-1.296;2023-05-29T09:33:30;101932.31;;;14.91;57.51
73624;BME280;61921;53.226;-1.296;2023-05-29T09:35:54;101937.61;;;14.70;58.67
73624;BME280;61921;53.226;-1.296;2023-05-29T09:38:20;101934.39;;;14.68;59.87
73624;BME280;61921;53.226;-1.296;2023-05-29T09:40:45;101932.41;;;14.89;60.51
73624;BME280;61921;53.226;-1.296;2023-05-29T09:43:11;101931.11;;;14.96;59.80
73624;BME280;61921;53.226;-1.296;2023-05-29T09:45:38;101930.14;;;15.01;58.66
73624;BME280;61921;53.226;-1.296;2023-05-29T09:48:01;101929.21;;;15.08;59.83
73624;BME280;61921;53.226;-1.296;2023-05-29T09:50:26;101931.09;;;15.69;58.00
73624;BME280;61921;53.226;-1.296;2023-05-29T09:52:52;101936.25;;;16.00;58.23
73624;BME280;61921;53.226;-1.296;2023-05-29T09:55:18;101931.59;;;16.47;56.95
73624;BME280;61921;53.226;-1.296;2023-05-29T09:57:43;101929.91;;;16.58;56.08
73624;BME280;61921;53.226;-1.296;2023-05-29T10:00:10;101926.84;;;16.06;55.14
73624;BME280;61921;53.226;-1.296;2023-05-29T10:02:33;101928.17;;;15.69;55.55
73624;BME280;61921;53.226;-1.296;2023-05-29T10:04:58;101923.23;;;15.42;57.10
73624;BME280;61921;53.226;-1.296;2023-05-29T10:07:27;101922.46;;;15.67;56.54
73624;BME280;61921;53.226;-1.296;2023-05-29T10:09:53;101921.22;;;15.43;57.69
73624;BME280;61921;53.226;-1.296;2023-05-29T10:12:15;101918.07;;;15.47;58.39
73624;BME280;61921;53.226;-1.296;2023-05-29T10:14:42;101918.48;;;15.58;59.26
73624;BME280;61921;53.226;-1.296;2023-05-29T10:17:07;101915.32;;;16.21;57.93
73624;BME280;61921;53.226;-1.296;2023-05-29T10:19:32;101912.46;;;16.11;57.41
73624;BME280;61921;53.226;-1.296;2023-05-29T10:21:55;101910.87;;;16.48;56.16
73624;BME280;61921;53.226;-1.296;2023-05-29T10:24:21;101906.99;;;16.44;55.48
73624;BME280;61921;53.226;-1.296;2023-05-29T10:26:48;101905.12;;;16.69;55.91
73624;BME280;61921;53.226;-1.296;2023-05-29T10:29:17;101909.93;;;16.80;53.54
73624;BME280;61921;53.226;-1.296;2023-05-29T10:31:48;101914.34;;;17.41;51.15
73624;BME280;61921;53.226;-1.296;2023-05-29T10:34:13;101906.61;;;17.21;51.76
73624;BME280;61921;53.226;-1.296;2023-05-29T10:36:30;101907.79;;;16.78;52.53
73624;BME280;61921;53.226;-1.296;2023-05-29T10:38:53;101910.70;;;16.44;54.69
73624;BME280;61921;53.226;-1.296;2023-05-29T10:41:30;101915.19;;;16.66;52.01
73624;BME280;61921;53.226;-1.296;2023-05-29T10:43:44;101908.51;;;16.73;51.70
73624;BME280;61921;53.226;-1.296;2023-05-29T10:46:09;101917.96;;;17.07;52.52
73624;BME280;61921;53.226;-1.296;2023-05-29T10:48:39;101912.74;;;16.56;50.93
73624;BME280;61921;53.226;-1.296;2023-05-29T10:50:59;101909.92;;;16.33;52.93
73624;BME280;61921;53.226;-1.296;2023-05-29T10:53:26;101901.73;;;16.87;51.61
73624;BME280;61921;53.226;-1.296;2023-05-29T10:55:51;101897.82;;;17.40;50.33
73624;BME280;61921;53.226;-1.296;2023-05-29T10:58:19;101900.37;;;17.59;50.09
73624;BME280;61921;53.226;-1.296;2023-05-29T11:00:42;101898.99;;;17.23;49.40
73624;BME280;61921;53.226;-1.296;2023-05-29T11:03:08;101896.57;;;17.02;49.81
73624;BME280;61921;53.226;-1.296;2023-05-29T11:05:32;101907.01;;;16.95;50.07
73624;BME280;61921;53.226;-1.296;2023-05-29T11:07:59;101897.16;;;17.16;50.06
73624;BME280;61921;53.226;-1.296;2023-05-29T11:10:43;101901.89;;;17.18;50.33
73624;BME280;61921;53.226;-1.296;2023-05-29T11:12:57;101903.77;;;16.75;50.73
73624;BME280;61921;53.226;-1.296;2023-05-29T11:15:14;101902.56;;;17.62;49.88
73624;BME280;61921;53.226;-1.296;2023-05-29T11:17:45;101906.04;;;17.20;51.72
73624;BME280;61921;53.226;-1.296;2023-05-29T11:20:05;101895.74;;;17.57;48.42
73624;BME280;61921;53.226;-1.296;2023-05-29T11:24:55;101898.90;;;18.48;46.89
73624;BME280;61921;53.226;-1.296;2023-05-29T11:27:20;101897.56;;;18.51;47.56
73624;BME280;61921;53.226;-1.296;2023-05-29T11:29:45;101902.21;;;17.94;46.40
73624;BME280;61921;53.226;-1.296;2023-05-29T11:32:14;101903.19;;;17.66;48.70
73624;BME280;61921;53.226;-1.296;2023-05-29T11:34:40;101908.34;;;17.73;48.70
73624;BME280;61921;53.226;-1.296;2023-05-29T11:37:02;101897.11;;;18.25;49.12
73624;BME280;61921;53.226;-1.296;2023-05-29T11:39:26;101903.70;;;17.89;48.86
73624;BME280;61921;53.226;-1.296;2023-05-29T11:41:51;101902.47;;;17.69;49.83
73624;BME280;61921;53.226;-1.296;2023-05-29T11:44:16;101904.12;;;17.04;51.71
73624;BME280;61921;53.226;-1.296;2023-05-29T11:46:41;101901.86;;;17.72;50.70
73624;BME280;61921;53.226;-1.296;2023-05-29T11:49:07;101896.30;;;18.15;48.71
73624;BME280;61921;53.226;-1.296;2023-05-29T11:51:32;101895.62;;;18.11;48.21
73624;BME280;61921;53.226;-1.296;2023-05-29T11:53:57;101895.29;;;18.46;47.67
73624;BME280;61921;53.226;-1.296;2023-05-29T11:56:22;101889.26;;;18.93;47.05
73624;BME280;61921;53.226;-1.296;2023-05-29T11:58:48;101891.38;;;19.60;45.30
73624;BME280;61921;53.226;-1.296;2023-05-29T12:01:16;101889.64;;;19.37;44.41
73624;BME280;61921;53.226;-1.296;2023-05-29T12:03:40;101885.39;;;18.74;47.06
73624;BME280;61921;53.226;-1.296;2023-05-29T12:06:04;101890.56;;;17.96;47.58
73624;BME280;61921;53.226;-1.296;2023-05-29T12:08:30;101880.83;;;18.32;47.27
73624;BME280;61921;53.226;-1.296;2023-05-29T12:10:54;101880.34;;;18.94;45.88
73624;BME280;61921;53.226;-1.296;2023-05-29T12:13:20;101884.65;;;19.17;45.50
73624;BME280;61921;53.226;-1.296;2023-05-29T12:15:45;101877.31;;;19.20;46.49
73624;BME280;61921;53.226;-1.296;2023-05-29T12:18:10;101880.53;;;19.18;46.79
73624;BME280;61921;53.226;-1.296;2023-05-29T12:20:35;101874.02;;;19.35;44.07
73624;BME280;61921;53.226;-1.296;2023-05-29T12:23:01;101869.07;;;19.50;44.68
73624;BME280;61921;53.226;-1.296;2023-05-29T12:25:25;101870.10;;;19.59;45.04
73624;BME280;61921;53.226;-1.296;2023-05-29T12:27:51;101873.64;;;19.52;45.25
73624;BME280;61921;53.226;-1.296;2023-05-29T12:30:20;101873.60;;;18.78;46.43
73624;BME280;61921;53.226;-1.296;2023-05-29T12:32:43;101874.50;;;19.13;45.10
73624;BME280;61921;53.226;-1.296;2023-05-29T12:35:12;101871.01;;;18.65;46.33
73624;BME280;61921;53.226;-1.296;2023-05-29T12:37:32;101870.65;;;18.92;46.66
73624;BME280;61921;53.226;-1.296;2023-05-29T12:40:09;101873.18;;;18.75;45.22
73624;BME280;61921;53.226;-1.296;2023-05-29T12:42:23;101867.64;;;18.81;45.27